createdAt,value
2018-09-14T05:23:58.988Z,14.23
2018-09-14T05:25:07.057Z,14.34
2018-09-14T05:26:14.998Z,14.30
2018-09-14T05:27:23.051Z,14.26
2018-09-14T05:28:31.136Z,14.33
2018-09-14T05:29:39.210Z,14.33
2018-09-14T05:30:47.260Z,14.20
2018-09-14T05:31:55.331Z,14.23
2018-09-14T05:33:03.581Z,14.31
2018-09-14T05:34:11.653Z,14.34
2018-09-14T05:35:19.743Z,14.34
2018-09-14T05:36:27.789Z,14.37
2018-09-14T05:37:36.145Z,14.30
2018-09-14T05:38:44.195Z,14.25
2018-09-14T05:39:52.000Z,14.20
2018-09-14T05:41:00.076Z,14.34
2018-09-14T05:42:08.139Z,14.25
2018-09-14T05:43:16.197Z,14.36
2018-09-14T05:44:24.263Z,14.38
2018-09-14T05:45:32.361Z,14.33
2018-09-14T05:46:40.382Z,14.30
2018-09-14T05:47:48.477Z,14.31
2018-09-14T05:48:56.515Z,14.26
2018-09-14T05:50:04.564Z,14.30
2018-09-14T05:51:12.880Z,14.25
2018-09-14T05:52:20.733Z,14.15
2018-09-14T05:53:28.762Z,14.15
2018-09-14T05:54:36.978Z,14.19
2018-09-14T05:55:44.908Z,14.15
2018-09-14T05:56:52.946Z,14.20
2018-09-14T05:58:01.027Z,14.23
2018-09-14T05:59:09.103Z,14.22
2018-09-14T06:00:17.167Z,14.23
2018-09-14T06:01:25.231Z,14.22
2018-09-14T06:02:33.342Z,14.26
2018-09-14T06:03:41.363Z,14.40
2018-09-14T06:04:49.425Z,14.41
2018-09-14T06:05:57.499Z,14.37
2018-09-14T06:07:05.557Z,14.49
2018-09-14T06:08:13.664Z,14.49
2018-09-14T06:09:21.744Z,14.48
2018-09-14T06:10:29.749Z,14.56
2018-09-14T06:11:37.817Z,14.62
2018-09-14T06:12:46.133Z,14.63
2018-09-14T06:13:53.949Z,14.62
2018-09-14T06:15:02.384Z,14.66
2018-09-14T06:16:10.322Z,14.73
2018-09-14T06:17:18.141Z,14.70
2018-09-14T06:18:26.200Z,14.73
2018-09-14T06:19:34.261Z,14.78
2018-09-14T06:20:42.337Z,14.68
2018-09-14T06:21:50.415Z,14.86
2018-09-14T06:22:58.595Z,14.85
2018-09-14T06:24:06.532Z,14.85
2018-09-14T06:25:14.591Z,14.92
2018-09-14T06:26:23.688Z,14.78
2018-09-14T06:27:30.755Z,14.89
2018-09-14T06:28:38.793Z,14.86
2018-09-14T06:29:46.873Z,14.86
2018-09-14T06:30:54.974Z,14.96
2018-09-14T06:32:03.342Z,14.96
2018-09-14T06:33:11.061Z,14.96
2018-09-14T06:34:19.142Z,15.00
2018-09-14T06:35:27.215Z,15.00
2018-09-14T06:36:35.310Z,15.17
2018-09-14T06:37:43.333Z,15.14
2018-09-14T06:38:51.411Z,15.22
2018-09-14T06:39:59.470Z,15.27
2018-09-14T06:41:07.784Z,15.32
2018-09-14T06:42:15.843Z,15.37
2018-09-14T06:43:23.652Z,15.33
2018-09-14T06:44:31.838Z,15.52
2018-09-14T06:45:39.786Z,15.50
2018-09-14T06:46:47.857Z,15.48
2018-09-14T06:47:56.172Z,15.47
2018-09-14T06:49:03.973Z,15.57
2018-09-14T06:50:12.039Z,15.54
2018-09-14T06:51:20.119Z,15.59
2018-09-14T06:52:28.177Z,15.70
2018-09-14T06:53:36.571Z,15.75
2018-09-14T06:54:44.729Z,15.85
2018-09-14T06:55:52.783Z,15.87
2018-09-14T06:57:00.855Z,15.90
2018-09-14T06:58:08.912Z,15.84
2018-09-14T06:59:17.349Z,15.87
2018-09-14T07:00:25.238Z,15.87
2018-09-14T07:01:33.132Z,15.84
2018-09-14T07:02:41.185Z,15.92
2018-09-14T07:03:49.256Z,16.09
2018-09-14T07:04:57.305Z,16.10
2018-09-14T07:06:05.393Z,16.03
2018-09-14T07:07:13.453Z,16.06
2018-09-14T07:08:21.544Z,16.10
2018-09-14T07:09:29.781Z,16.06
2018-09-14T07:10:37.854Z,16.16
2018-09-14T07:11:45.945Z,16.08
2018-09-14T07:12:54.001Z,16.08
2018-09-14T07:14:02.050Z,16.16
2018-09-14T07:15:10.125Z,16.24
2018-09-14T07:16:18.179Z,16.21
2018-09-14T07:17:26.261Z,16.22
2018-09-14T07:18:34.337Z,16.21
2018-09-14T07:19:42.375Z,16.32
2018-09-14T07:20:50.447Z,16.41
2018-09-14T07:21:58.935Z,16.54
2018-09-14T07:23:06.791Z,16.68
2018-09-14T07:24:14.952Z,16.72
2018-09-14T07:25:22.946Z,16.91
2018-09-14T07:26:30.991Z,16.97
2018-09-14T07:27:39.057Z,17.01
2018-09-14T07:28:47.259Z,17.34
2018-09-14T07:29:55.199Z,17.52
2018-09-14T07:31:03.359Z,17.97
2018-09-14T07:32:11.370Z,18.16
2018-09-14T07:33:19.419Z,17.79
2018-09-14T07:34:27.485Z,18.11
2018-09-14T07:35:36.152Z,18.34
2018-09-14T07:36:43.600Z,18.18
2018-09-14T07:37:51.685Z,18.13
2018-09-14T07:38:59.755Z,18.21
2018-09-14T07:40:07.820Z,18.64
2018-09-14T07:41:15.880Z,18.83
2018-09-14T07:42:28.305Z,18.94
2018-09-14T07:43:36.280Z,18.92
2018-09-14T07:44:44.344Z,19.11
2018-09-14T07:45:52.400Z,19.09
2018-09-14T07:47:00.530Z,18.73
2018-09-14T07:48:08.659Z,18.71
2018-09-14T07:49:16.677Z,18.49
2018-09-14T07:50:24.688Z,18.51
2018-09-14T07:51:32.778Z,18.31
2018-09-14T07:52:40.838Z,18.28
2018-09-14T07:53:48.893Z,18.37
2018-09-14T07:54:56.959Z,18.33
2018-09-14T07:56:05.048Z,18.41
2018-09-14T07:57:13.094Z,18.43
2018-09-14T07:58:21.185Z,18.42
2018-09-14T07:59:29.265Z,18.45
2018-09-14T08:00:37.348Z,18.16
2018-09-14T08:01:45.407Z,18.36
2018-09-14T08:02:54.991Z,18.31
2018-09-14T08:04:01.559Z,18.48
2018-09-14T08:06:23.729Z,19.56
2018-09-14T08:07:32.016Z,19.90
2018-09-14T08:08:40.080Z,20.22
2018-09-14T08:09:48.220Z,20.49
2018-09-14T08:10:56.237Z,-40.00
2018-09-14T08:12:06.891Z,-40.00
2018-09-14T08:13:14.431Z,-40.00
2018-09-14T08:14:23.540Z,-40.00
2018-09-14T08:15:36.442Z,-40.00
2018-09-14T08:16:48.563Z,-40.00
2018-09-14T08:18:02.841Z,-40.00
2018-09-14T08:19:04.620Z,-40.00
2018-09-14T08:20:12.718Z,-40.00
2018-09-14T08:21:20.859Z,-40.00
2018-09-14T08:22:28.846Z,-40.00
2018-09-14T08:24:58.715Z,-40.00
2018-09-14T08:26:03.757Z,-40.00
2018-09-14T08:27:20.421Z,-40.00
2018-09-14T08:28:22.116Z,-40.00
2018-09-14T08:29:30.198Z,-40.00
2018-09-14T08:30:38.251Z,-40.00
2018-09-14T08:31:46.329Z,-40.00
2018-09-14T08:32:54.407Z,-40.00
2018-09-14T08:34:02.473Z,-40.00
2018-09-14T08:35:10.544Z,-40.00
2018-09-14T08:36:18.862Z,-40.00
2018-09-14T08:37:26.892Z,-40.00
2018-09-14T08:38:34.999Z,-40.00
2018-09-14T08:39:43.039Z,-40.00
2018-09-14T08:40:51.110Z,-40.00
2018-09-14T08:42:00.602Z,-40.00
2018-09-14T08:43:08.781Z,-40.00
2018-09-14T08:44:16.744Z,-40.00
2018-09-14T08:45:24.797Z,-40.00
2018-09-14T08:46:35.103Z,-40.00
2018-09-14T08:47:40.975Z,-40.00
2018-09-14T08:48:49.027Z,-40.00
2018-09-14T08:49:57.069Z,-40.00
2018-09-14T08:51:05.159Z,-40.00
2018-09-14T08:52:15.848Z,-40.00
2018-09-14T08:53:26.353Z,-40.00
2018-09-14T08:54:34.435Z,-40.00
2018-09-14T08:55:44.484Z,-40.00
2018-09-14T08:56:50.542Z,-40.00
2018-09-14T08:57:58.682Z,-40.00
2018-09-14T08:59:07.764Z,-40.00
2018-09-14T09:00:14.983Z,-40.00
2018-09-14T09:01:23.018Z,-40.00
2018-09-14T09:02:31.088Z,-40.00
2018-09-14T09:03:39.181Z,-40.00
2018-09-14T09:04:47.246Z,-40.00
2018-09-14T09:05:55.300Z,-40.00
2018-09-14T09:07:03.448Z,-40.00
2018-09-14T09:08:11.657Z,-40.00
2018-09-14T09:09:19.841Z,-40.00
2018-09-14T09:10:27.820Z,-40.00
2018-09-14T09:11:35.853Z,-40.00
2018-09-14T09:12:44.146Z,-40.00
2018-09-14T09:13:52.190Z,-40.00
2018-09-14T09:15:00.314Z,-40.00
2018-09-14T09:16:08.351Z,-40.00
2018-09-14T09:17:16.424Z,-40.00
2018-09-14T09:18:24.492Z,-40.00
2018-09-14T09:19:32.553Z,-40.00
2018-09-14T09:20:40.616Z,-40.00
2018-09-14T09:21:48.732Z,-40.00
2018-09-14T09:22:56.766Z,-40.00
2018-09-14T09:24:04.836Z,-40.00
2018-09-14T09:25:12.901Z,-40.00
2018-09-14T09:26:21.070Z,-40.00
2018-09-14T09:27:29.105Z,-40.00
2018-09-14T09:28:37.111Z,-40.00
2018-09-14T09:29:45.188Z,-40.00
2018-09-14T09:30:53.264Z,-40.00
2018-09-14T09:32:01.325Z,-40.00
2018-09-14T09:33:09.403Z,-40.00
2018-09-14T09:34:17.456Z,-40.00
2018-09-14T09:35:25.547Z,-40.00
2018-09-14T09:36:33.607Z,-40.00
2018-09-14T09:37:41.696Z,-40.00
2018-09-14T09:38:49.747Z,-40.00
2018-09-14T09:39:57.816Z,-40.00
2018-09-14T09:41:05.891Z,-40.00
2018-09-14T09:42:13.979Z,-40.00
2018-09-14T09:43:22.420Z,-40.00
2018-09-14T09:44:30.283Z,-40.00
2018-09-14T09:45:38.378Z,-40.00
2018-09-14T09:46:46.451Z,-40.00
2018-09-14T09:47:54.507Z,-40.00
2018-09-14T09:49:02.565Z,-40.00
2018-09-14T09:50:10.643Z,-40.00
2018-09-14T09:51:18.847Z,-40.00
2018-09-14T09:52:26.795Z,-40.00
2018-09-14T09:53:34.841Z,-40.00
2018-09-14T09:54:42.914Z,-40.00
2018-09-14T09:55:51.019Z,-40.00
2018-09-14T09:56:59.073Z,-40.00
2018-09-14T09:58:07.128Z,-40.00
2018-09-14T09:59:15.194Z,-40.00
2018-09-14T10:00:23.269Z,-40.00
2018-09-14T10:01:32.401Z,-40.00
2018-09-14T10:02:39.433Z,-40.00
2018-09-14T10:03:47.547Z,-40.00
2018-09-14T10:04:55.587Z,-40.00
2018-09-14T10:06:03.872Z,-40.00
2018-09-14T10:07:11.710Z,-40.00
2018-09-14T10:08:19.967Z,-40.00
2018-09-14T10:09:28.037Z,-40.00
2018-09-14T10:10:36.098Z,-40.00
2018-09-14T10:11:44.171Z,-40.00
2018-09-14T10:12:52.245Z,-40.00
2018-09-14T10:14:00.360Z,-40.00
2018-09-14T10:15:08.432Z,-40.00
2018-09-14T10:16:16.711Z,-40.00
2018-09-14T10:17:24.564Z,-40.00
2018-09-14T10:18:32.575Z,-40.00
2018-09-14T10:19:40.663Z,-40.00
2018-09-14T10:20:48.807Z,-40.00
2018-09-14T10:21:57.009Z,-40.00
2018-09-14T10:23:05.194Z,-40.00
2018-09-14T10:24:13.129Z,-40.00
2018-09-14T10:25:21.216Z,-40.00
2018-09-14T10:26:29.287Z,-40.00
2018-09-14T10:27:37.340Z,-40.00
2018-09-14T10:28:45.476Z,-40.00
2018-09-14T10:29:53.482Z,-40.00
2018-09-14T10:31:01.565Z,-40.00
2018-09-14T10:32:09.626Z,-40.00
2018-09-14T10:33:17.684Z,-40.00
2018-09-14T10:34:25.813Z,-40.00
2018-09-14T10:35:33.819Z,-40.00
2018-09-14T10:36:41.911Z,-40.00
2018-09-14T10:37:49.965Z,-40.00
2018-09-14T10:38:58.060Z,-40.00
2018-09-14T10:40:06.180Z,-40.00
2018-09-14T10:41:14.201Z,-40.00
2018-09-14T10:42:22.251Z,-40.00
2018-09-14T10:43:30.586Z,-40.00
2018-09-14T10:44:38.406Z,-40.00
2018-09-14T10:45:46.739Z,-40.00
2018-09-14T10:46:54.538Z,-40.00
2018-09-14T10:48:02.637Z,-40.00
2018-09-14T10:49:10.728Z,-40.00
2018-09-14T10:50:18.801Z,-40.00
2018-09-14T10:51:26.818Z,-40.00
2018-09-14T10:52:34.889Z,-40.00
2018-09-14T10:53:42.952Z,-40.00
2018-09-14T10:54:51.073Z,-40.00
2018-09-14T10:55:59.098Z,-40.00
2018-09-14T10:57:07.176Z,-40.00
2018-09-14T10:58:15.235Z,-40.00
2018-09-14T10:59:23.316Z,-40.00
2018-09-14T11:00:31.409Z,-40.00
2018-09-14T11:01:39.474Z,-40.00
2018-09-14T11:02:47.534Z,-40.00
2018-09-14T11:03:55.596Z,-40.00
2018-09-14T11:05:03.702Z,-40.00
2018-09-14T11:06:11.761Z,-40.00
2018-09-14T11:07:19.837Z,-40.00
2018-09-14T11:08:27.904Z,-40.00
2018-09-14T11:09:35.940Z,-40.00
2018-09-14T11:10:44.021Z,-40.00
2018-09-14T11:11:52.098Z,-40.00
2018-09-14T11:13:00.306Z,-40.00
2018-09-14T11:14:08.265Z,-40.00
2018-09-14T11:15:16.345Z,-40.00
2018-09-14T11:16:24.440Z,-40.00
2018-09-14T11:17:32.466Z,-40.00
2018-09-14T11:18:40.776Z,-40.00
2018-09-14T11:19:49.051Z,-40.00
2018-09-14T11:20:56.872Z,-40.00
2018-09-14T11:22:05.199Z,-40.00
2018-09-14T11:23:13.008Z,-40.00
2018-09-14T11:24:21.090Z,-40.00
2018-09-14T11:25:29.195Z,-40.00
2018-09-14T11:26:37.283Z,-40.00
2018-09-14T11:27:45.309Z,-40.00
2018-09-14T11:28:53.367Z,-40.00
2018-09-14T11:30:01.450Z,-40.00
2018-09-14T11:31:09.508Z,-40.00
2018-09-14T11:32:18.685Z,-40.00
2018-09-14T11:33:25.662Z,-40.00
2018-09-14T11:34:33.725Z,-40.00
2018-09-14T11:35:41.801Z,-40.00
2018-09-14T11:36:49.870Z,-40.00
2018-09-14T11:37:58.074Z,-40.00
2018-09-14T11:39:06.123Z,-40.00
2018-09-14T11:40:14.059Z,-40.00
2018-09-14T11:41:22.137Z,-40.00
2018-09-14T11:42:30.680Z,-40.00
2018-09-14T11:43:38.491Z,-40.00
2018-09-14T11:44:46.558Z,-40.00
2018-09-14T11:45:54.684Z,-40.00
2018-09-14T11:47:02.698Z,-40.00
2018-09-14T11:48:10.767Z,-40.00
2018-09-14T11:49:18.841Z,-40.00
2018-09-14T11:50:26.901Z,-40.00
2018-09-14T11:51:34.967Z,-40.00
2018-09-14T11:52:43.020Z,-40.00
2018-09-14T11:53:51.109Z,-40.00
2018-09-14T11:54:59.199Z,-40.00
2018-09-14T11:56:07.329Z,-40.00
2018-09-14T11:57:15.324Z,-40.00
2018-09-14T11:58:23.450Z,-40.00
2018-09-14T11:59:31.454Z,-40.00
2018-09-14T12:00:39.520Z,-40.00
2018-09-14T12:01:47.658Z,-40.00
2018-09-14T12:02:55.691Z,-40.00
2018-09-14T12:04:03.746Z,-40.00
2018-09-14T12:05:11.812Z,-40.00
2018-09-14T12:06:19.870Z,-40.00
2018-09-14T12:07:27.948Z,-40.00
2018-09-14T12:08:36.027Z,-40.00
2018-09-14T12:09:44.074Z,-40.00
2018-09-14T12:10:52.159Z,-40.00
2018-09-14T12:12:00.238Z,-40.00
2018-09-14T12:13:08.296Z,-40.00
2018-09-14T12:14:16.379Z,-40.00
2018-09-14T12:15:24.435Z,-40.00
2018-09-14T12:16:32.490Z,-40.00
2018-09-14T12:17:40.838Z,-40.00
2018-09-14T12:18:48.647Z,-40.00
2018-09-14T12:19:56.716Z,-40.00
2018-09-14T12:21:04.777Z,-40.00
2018-09-14T12:22:12.824Z,-40.00
2018-09-14T12:23:21.130Z,-40.00
2018-09-14T12:24:29.190Z,-40.00
2018-09-14T12:25:37.268Z,-40.00
2018-09-14T12:26:45.341Z,-40.00
2018-09-14T12:27:53.487Z,-40.00
2018-09-14T12:29:01.536Z,-40.00
2018-09-14T12:30:09.555Z,-40.00
2018-09-14T12:31:17.880Z,-40.00
2018-09-14T12:32:25.677Z,-40.00
2018-09-14T12:33:33.740Z,-40.00
2018-09-14T12:34:41.833Z,-40.00
2018-09-14T12:35:49.903Z,-40.00
2018-09-14T12:36:57.957Z,-40.00
2018-09-14T12:38:06.389Z,-40.00
2018-09-14T12:39:14.108Z,-40.00
2018-09-14T12:40:22.172Z,-40.00
2018-09-14T12:41:30.250Z,-40.00
2018-09-14T12:42:38.306Z,-40.00
2018-09-14T12:43:46.378Z,-40.00
2018-09-14T12:44:54.449Z,-40.00
2018-09-14T12:46:02.512Z,-40.00
2018-09-14T12:47:10.593Z,-40.00
2018-09-14T12:48:18.650Z,-40.00
2018-09-14T12:49:26.782Z,-40.00
2018-09-14T12:50:34.779Z,-40.00
2018-09-14T12:51:42.847Z,-40.00
2018-09-14T12:52:50.927Z,-40.00
2018-09-14T12:53:58.996Z,-40.00
2018-09-14T12:55:07.113Z,-40.00
2018-09-14T12:56:15.185Z,-40.00
2018-09-14T12:57:23.208Z,-40.00
2018-09-14T12:58:31.270Z,-40.00
2018-09-14T12:59:39.347Z,-40.00
2018-09-14T13:00:47.424Z,-40.00
2018-09-14T13:01:55.484Z,-40.00
2018-09-14T13:03:03.755Z,-40.00
2018-09-14T13:04:11.860Z,-40.00
2018-09-14T13:05:19.909Z,-40.00
2018-09-14T13:06:28.429Z,-40.00
2018-09-14T13:07:36.222Z,-40.00
2018-09-14T13:08:44.281Z,-40.00
2018-09-14T13:09:52.352Z,-40.00
2018-09-14T13:11:00.418Z,-40.00
2018-09-14T13:12:08.495Z,-40.00
2018-09-14T13:13:16.569Z,-40.00
2018-09-14T13:14:24.647Z,-40.00
2018-09-14T13:15:32.696Z,-40.00
2018-09-14T13:16:41.028Z,-40.00
2018-09-14T13:17:48.836Z,-40.00
2018-09-14T13:18:57.232Z,-40.00
2018-09-14T13:20:04.980Z,-40.00
2018-09-14T13:21:13.032Z,-40.00
2018-09-14T13:22:21.144Z,-40.00
2018-09-14T13:23:29.186Z,-40.00
2018-09-14T13:24:37.244Z,-40.00
2018-09-14T13:25:45.448Z,-40.00
2018-09-14T13:26:53.397Z,-40.00
2018-09-14T13:28:01.522Z,-40.00
2018-09-14T13:29:09.581Z,-40.00
2018-09-14T13:30:17.601Z,-40.00
2018-09-14T13:31:25.680Z,-40.00
2018-09-14T13:32:33.741Z,-40.00
2018-09-14T13:33:41.844Z,-40.00
2018-09-14T13:34:49.899Z,-40.00
2018-09-14T13:35:57.938Z,-40.00
2018-09-14T13:37:06.772Z,-40.00
2018-09-14T13:38:14.088Z,-40.00
2018-09-14T13:39:22.428Z,-40.00
2018-09-14T13:40:30.454Z,-40.00
2018-09-14T13:41:38.762Z,-40.00
2018-09-14T13:42:46.566Z,-40.00
2018-09-14T13:43:54.641Z,-40.00
2018-09-14T13:45:02.714Z,-40.00
2018-09-14T13:46:10.783Z,-40.00
2018-09-14T13:47:18.948Z,-40.00
2018-09-14T13:48:26.918Z,-40.00
2018-09-14T13:49:35.020Z,-40.00
2018-09-14T13:50:43.099Z,-40.00
2018-09-14T13:51:51.138Z,-40.00
2018-09-14T13:52:59.282Z,-40.00
2018-09-14T13:54:07.289Z,-40.00
2018-09-14T13:55:15.327Z,-40.00
2018-09-14T13:56:23.675Z,-40.00
2018-09-14T13:57:31.482Z,-40.00
2018-09-14T13:58:39.556Z,-40.00
2018-09-14T13:59:47.723Z,-40.00
2018-09-14T14:00:55.674Z,-40.00
2018-09-14T14:02:03.761Z,-40.00
2018-09-14T14:03:11.816Z,-40.00
2018-09-14T14:04:20.000Z,-40.00
2018-09-14T14:05:27.948Z,-40.00
2018-09-14T14:06:36.301Z,-40.00
2018-09-14T14:07:44.108Z,-40.00
2018-09-14T14:08:52.167Z,-40.00
2018-09-14T14:10:00.340Z,-40.00
2018-09-14T14:11:08.310Z,-40.00
2018-09-14T14:12:16.395Z,-40.00
2018-09-14T14:13:24.698Z,-40.00
2018-09-14T14:14:32.512Z,-40.00
2018-09-14T14:15:40.595Z,-40.00
2018-09-14T14:16:48.668Z,-40.00
2018-09-14T14:17:56.871Z,-40.00
2018-09-14T14:19:05.051Z,-40.00
2018-09-14T14:20:12.854Z,-40.00
2018-09-14T14:21:20.957Z,-40.00
2018-09-14T14:22:29.002Z,-40.00
2018-09-14T14:23:37.079Z,-40.00
2018-09-14T14:24:45.147Z,-40.00
2018-09-14T14:25:53.206Z,-40.00
2018-09-14T14:27:01.286Z,-40.00
2018-09-14T14:28:09.609Z,-40.00
2018-09-14T14:29:17.420Z,-40.00
2018-09-14T14:30:25.497Z,-40.00
2018-09-14T14:31:33.934Z,-40.00
2018-09-14T14:32:41.644Z,-40.00
2018-09-14T14:33:49.730Z,-40.00
2018-09-14T14:34:57.832Z,-40.00
2018-09-14T14:36:05.882Z,-40.00
2018-09-14T14:37:13.903Z,-40.00
2018-09-14T14:38:21.976Z,-40.00
2018-09-14T14:39:30.065Z,-40.00
2018-09-14T14:40:38.112Z,-40.00
2018-09-14T14:41:46.194Z,-40.00
2018-09-14T14:42:54.250Z,-40.00
2018-09-14T14:44:02.312Z,-40.00
2018-09-14T14:45:10.758Z,-40.00
2018-09-14T14:46:18.494Z,-40.00
2018-09-14T14:47:26.530Z,-40.00
2018-09-14T14:48:34.604Z,-40.00
2018-09-14T14:49:42.680Z,-40.00
2018-09-14T14:50:50.739Z,-40.00
2018-09-14T14:51:58.841Z,-40.00
2018-09-14T14:53:06.873Z,-40.00
2018-09-14T14:54:14.943Z,-40.00
2018-09-14T14:55:22.992Z,-40.00
2018-09-14T14:56:31.108Z,-40.00
2018-09-14T14:57:39.151Z,-40.00
2018-09-14T14:58:47.264Z,-40.00
2018-09-14T14:59:55.315Z,-40.00
2018-09-14T15:01:03.337Z,-40.00
2018-09-14T15:02:11.410Z,-40.00
2018-09-14T15:03:19.494Z,-40.00
2018-09-14T15:04:27.543Z,-40.00
2018-09-14T15:05:35.620Z,-40.00
2018-09-14T15:06:43.696Z,-40.00
2018-09-14T15:07:51.762Z,-40.00
2018-09-14T15:08:59.820Z,-40.00
2018-09-14T15:10:07.894Z,-40.00
2018-09-14T15:11:15.972Z,-40.00
2018-09-14T15:12:24.035Z,-40.00
2018-09-14T15:13:32.110Z,-40.00
2018-09-14T15:14:40.292Z,-40.00
2018-09-14T15:15:48.236Z,-40.00
2018-09-14T15:16:56.303Z,-40.00
2018-09-14T15:18:04.364Z,-40.00
2018-09-14T15:19:12.471Z,-40.00
2018-09-14T15:20:20.550Z,-40.00
2018-09-14T15:21:28.576Z,-40.00
2018-09-14T15:22:36.650Z,-40.00
2018-09-14T15:23:44.708Z,-40.00
2018-09-14T15:24:52.786Z,-40.00
2018-09-14T15:26:00.846Z,-40.00
2018-09-14T15:27:09.188Z,-40.00
2018-09-14T15:28:16.995Z,-40.00
2018-09-14T15:29:25.064Z,-40.00
2018-09-14T15:30:33.140Z,-40.00
2018-09-14T15:31:41.199Z,-40.00
2018-09-14T15:32:49.255Z,-40.00
2018-09-14T15:33:57.327Z,-40.00
2018-09-14T15:35:05.659Z,-40.00
2018-09-14T15:36:13.466Z,-40.00
2018-09-14T15:37:21.534Z,-40.00
2018-09-14T15:38:29.590Z,-40.00
2018-09-14T15:39:37.690Z,-40.00
2018-09-14T15:40:45.750Z,-40.00
2018-09-14T15:41:53.814Z,-40.00
2018-09-14T15:43:01.926Z,-40.00
2018-09-14T15:44:10.036Z,-40.00
2018-09-14T15:45:18.009Z,-40.00
2018-09-14T15:46:26.090Z,-40.00
2018-09-14T15:47:34.157Z,-40.00
2018-09-14T15:48:42.213Z,-40.00
2018-09-14T15:49:50.401Z,-40.00
2018-09-14T15:50:58.370Z,-40.00
2018-09-14T15:52:06.436Z,-40.00
2018-09-14T15:53:14.492Z,-40.00
2018-09-14T15:54:22.540Z,-40.00
2018-09-14T15:55:30.643Z,-40.00
2018-09-14T15:56:38.781Z,-40.00
2018-09-14T15:57:47.069Z,-40.00
2018-09-14T15:58:54.827Z,-40.00
2018-09-14T16:00:02.895Z,-40.00
2018-09-14T16:01:10.962Z,-40.00
2018-09-14T16:02:19.036Z,-40.00
2018-09-14T16:03:27.102Z,-40.00
2018-09-14T16:04:35.420Z,-40.00
2018-09-14T16:05:43.233Z,-40.00
2018-09-14T16:06:51.330Z,-40.00
2018-09-14T16:07:59.425Z,-40.00
2018-09-14T16:09:07.441Z,-40.00
2018-09-14T16:10:15.580Z,-40.00
2018-09-14T16:11:23.851Z,-40.00
2018-09-14T16:12:31.642Z,-40.00
2018-09-14T16:13:39.879Z,-40.00
2018-09-14T16:14:50.005Z,-40.00
2018-09-14T16:15:58.076Z,-40.00
2018-09-14T16:17:06.128Z,-40.00
2018-09-14T16:18:14.187Z,-40.00
2018-09-14T16:19:22.243Z,-40.00
2018-09-14T16:20:30.328Z,-40.00
2018-09-14T16:21:38.401Z,-40.00
2018-09-14T16:22:46.747Z,-40.00
2018-09-14T16:23:54.535Z,-40.00
2018-09-14T16:25:02.594Z,-40.00
2018-09-14T16:26:10.681Z,-40.00
2018-09-14T16:27:18.755Z,-40.00
2018-09-14T16:28:27.085Z,-40.00
2018-09-14T16:29:34.896Z,-40.00
2018-09-14T16:30:42.939Z,-40.00
2018-09-14T16:31:51.044Z,-40.00
2018-09-14T16:32:59.688Z,-40.00
2018-09-14T16:34:07.134Z,-40.00
2018-09-14T16:35:15.206Z,-40.00
2018-09-14T16:36:23.264Z,-40.00
2018-09-14T16:37:31.639Z,-40.00
2018-09-14T16:38:39.779Z,-40.00
2018-09-14T16:39:47.812Z,-40.00
2018-09-14T16:40:55.552Z,-40.00
2018-09-14T16:42:03.628Z,-40.00
2018-09-14T16:43:11.697Z,-40.00
2018-09-14T16:44:19.762Z,-40.00
2018-09-14T16:45:27.821Z,-40.00
2018-09-14T16:46:35.893Z,-40.00
2018-09-14T16:47:44.963Z,-40.00
2018-09-14T16:48:52.279Z,-40.00
2018-09-14T16:50:00.083Z,-40.00
2018-09-14T16:51:08.168Z,-40.00
2018-09-14T16:52:16.257Z,-40.00
2018-09-14T16:53:24.283Z,-40.00
2018-09-14T16:54:32.360Z,-40.00
2018-09-14T16:55:40.454Z,-40.00
2018-09-14T16:56:48.483Z,-40.00
2018-09-14T16:57:56.597Z,-40.00
2018-09-14T16:59:04.637Z,-40.00
2018-09-14T17:00:12.698Z,-40.00
2018-09-14T17:01:20.772Z,-40.00
2018-09-14T17:02:28.882Z,-40.00
2018-09-14T17:03:36.890Z,-40.00
2018-09-14T17:04:45.229Z,-40.00
2018-09-14T17:05:53.032Z,-40.00
2018-09-14T17:07:01.110Z,-40.00
2018-09-14T17:08:09.152Z,-40.00
2018-09-14T17:09:17.234Z,-40.00
2018-09-14T17:10:25.390Z,-40.00
2018-09-14T17:11:33.630Z,-40.00
2018-09-14T17:12:41.641Z,-40.00
2018-09-14T17:13:49.767Z,-40.00
2018-09-14T17:14:57.765Z,-40.00
2018-09-14T17:16:05.827Z,-40.00
2018-09-14T17:17:14.156Z,-40.00
2018-09-14T17:18:21.966Z,-40.00
2018-09-14T17:19:30.035Z,-40.00
2018-09-14T17:20:38.111Z,-40.00
2018-09-14T17:21:46.183Z,-40.00
2018-09-14T17:22:54.231Z,-40.00
2018-09-14T17:24:02.312Z,-40.00
2018-09-14T17:25:10.367Z,-40.00
2018-09-14T17:26:18.426Z,-40.00
2018-09-14T17:27:26.548Z,-40.00
2018-09-14T17:28:34.562Z,-40.00
2018-09-14T17:29:42.651Z,-40.00
2018-09-14T17:30:50.831Z,-40.00
2018-09-14T17:31:58.779Z,-40.00
2018-09-14T17:33:06.830Z,-40.00
2018-09-14T17:34:14.904Z,-40.00
2018-09-14T17:35:22.961Z,-40.00
2018-09-14T17:36:31.054Z,-40.00
2018-09-14T17:37:39.115Z,-40.00
2018-09-14T17:38:47.201Z,-40.00
2018-09-14T17:39:55.259Z,-40.00
2018-09-14T17:41:03.301Z,-40.00
2018-09-14T17:42:11.411Z,-40.00
2018-09-14T17:43:19.440Z,-40.00
2018-09-14T17:44:27.571Z,-40.00
2018-09-14T17:45:35.578Z,-40.00
2018-09-14T17:46:43.649Z,-40.00
2018-09-14T17:47:51.728Z,-40.00
2018-09-14T17:48:59.783Z,-40.00
2018-09-14T17:50:07.864Z,-40.00
2018-09-14T17:51:15.903Z,-40.00
2018-09-14T17:52:23.984Z,-40.00
2018-09-14T17:53:32.055Z,-40.00
2018-09-14T17:54:40.109Z,-40.00
2018-09-14T17:55:49.431Z,-40.00
2018-09-14T17:56:56.435Z,-40.00
2018-09-14T17:58:04.501Z,-40.00
2018-09-14T17:59:12.553Z,-40.00
2018-09-14T18:00:20.646Z,-40.00
2018-09-14T18:01:28.723Z,-40.00
2018-09-14T18:02:36.774Z,-40.00
2018-09-14T18:03:44.843Z,-40.00
2018-09-14T18:04:53.035Z,-40.00
2018-09-14T18:06:00.974Z,-40.00
2018-09-14T18:07:09.296Z,-40.00
2018-09-14T18:08:17.115Z,-40.00
2018-09-14T18:09:25.559Z,-40.00
2018-09-14T18:10:33.243Z,-40.00
2018-09-14T18:11:41.324Z,-40.00
2018-09-14T18:12:49.370Z,-40.00
2018-09-14T18:13:57.750Z,-40.00
2018-09-14T18:15:05.505Z,-40.00
2018-09-14T18:16:13.590Z,-40.00
2018-09-14T18:17:21.641Z,-40.00
2018-09-14T18:18:29.708Z,-40.00
2018-09-14T18:19:37.776Z,-40.00
2018-09-14T18:20:45.841Z,-40.00
2018-09-14T18:21:53.926Z,-40.00
2018-09-14T18:23:02.023Z,-40.00
2018-09-14T18:24:10.037Z,-40.00
2018-09-14T18:25:18.132Z,-40.00
2018-09-14T18:26:26.175Z,-40.00
2018-09-14T18:27:34.266Z,-40.00
2018-09-14T18:28:42.311Z,-40.00
2018-09-14T18:29:50.378Z,-40.00
2018-09-14T18:30:58.457Z,-40.00
2018-09-14T18:32:06.507Z,-40.00
2018-09-14T18:33:14.575Z,-40.00
2018-09-14T18:34:22.653Z,-40.00
2018-09-14T18:35:30.728Z,-40.00
2018-09-14T18:36:39.150Z,-40.00
2018-09-14T18:37:46.864Z,-40.00
2018-09-14T18:38:54.903Z,-40.00
2018-09-14T18:40:04.218Z,-40.00
2018-09-14T18:41:11.039Z,-40.00
2018-09-14T18:42:19.170Z,-40.00
2018-09-14T18:43:27.174Z,-40.00
2018-09-14T18:44:35.220Z,-40.00
2018-09-14T18:45:43.321Z,-40.00
2018-09-14T18:46:51.398Z,-40.00
2018-09-14T18:47:59.461Z,-40.00
2018-09-14T18:49:07.524Z,-40.00
2018-09-14T18:50:15.570Z,-40.00
2018-09-14T18:51:23.624Z,-40.00
2018-09-14T18:52:31.768Z,-40.00
2018-09-14T18:53:39.765Z,-40.00
2018-09-14T18:54:47.834Z,-40.00
2018-09-14T18:55:55.997Z,-40.00
2018-09-14T18:57:04.598Z,-40.00
2018-09-14T18:58:12.064Z,-40.00
2018-09-14T18:59:20.115Z,-40.00
2018-09-14T19:00:28.158Z,-40.00
2018-09-14T19:01:36.450Z,-40.00
2018-09-14T19:02:44.865Z,-40.00
2018-09-14T19:03:52.560Z,-40.00
2018-09-14T19:05:00.908Z,-40.00
2018-09-14T19:06:08.709Z,-40.00
2018-09-14T19:07:16.776Z,-40.00
2018-09-14T19:08:24.822Z,-40.00
2018-09-14T19:09:32.872Z,-40.00
2018-09-14T19:10:40.959Z,-40.00
2018-09-14T19:11:49.039Z,-40.00
2018-09-14T19:12:57.312Z,-40.00
2018-09-14T19:14:05.367Z,-40.00
2018-09-14T19:15:13.458Z,-40.00
2018-09-14T19:16:21.507Z,-40.00
2018-09-14T19:17:30.633Z,-40.00
2018-09-14T19:18:37.637Z,-40.00
2018-09-14T19:19:45.697Z,-40.00
2018-09-14T19:20:53.770Z,-40.00
2018-09-14T19:22:01.845Z,-40.00
2018-09-14T19:23:09.891Z,-40.00
2018-09-14T19:24:18.260Z,-40.00
2018-09-14T19:25:26.026Z,-40.00
2018-09-14T19:26:34.188Z,-40.00
2018-09-14T19:27:42.207Z,-40.00
2018-09-14T19:28:50.226Z,-40.00
2018-09-14T19:29:59.045Z,-40.00
2018-09-14T19:31:06.357Z,-40.00
2018-09-14T19:32:14.447Z,-40.00
2018-09-14T19:33:22.497Z,-40.00
2018-09-14T19:34:30.610Z,-40.00
2018-09-14T19:35:38.613Z,-40.00
2018-09-14T19:36:47.212Z,-40.00
2018-09-14T19:37:54.976Z,-40.00
2018-09-14T19:39:03.005Z,-40.00
2018-09-14T19:40:11.095Z,-40.00
2018-09-14T19:41:19.178Z,-40.00